createdAt,value
2022-11-02T00:01:58.120Z,23.60
2022-11-02T00:04:24.930Z,23.13
2022-11-02T00:06:51.570Z,20.15
2022-11-02T00:09:18.170Z,21.27
2022-11-02T00:11:44.767Z,21.10
2022-11-02T00:14:11.320Z,20.95
2022-11-02T00:16:38.601Z,20.08
2022-11-02T00:19:05.467Z,18.45
2022-11-02T00:21:32.101Z,17.60
2022-11-02T00:23:59.011Z,17.70
2022-11-02T00:26:26.344Z,17.73
2022-11-02T00:28:53.502Z,18.50
2022-11-02T00:31:20.623Z,17.48
2022-11-02T00:33:47.387Z,18.33
2022-11-02T00:36:14.025Z,16.50
2022-11-02T00:38:40.689Z,18.83
2022-11-02T00:41:07.376Z,21.02
2022-11-02T00:43:33.965Z,20.88
2022-11-02T00:46:01.559Z,23.25
2022-11-02T00:48:28.511Z,16.75
2022-11-02T00:50:55.419Z,16.90
2022-11-02T00:53:22.006Z,15.60
2022-11-02T00:55:48.625Z,17.95
2022-11-02T00:58:15.232Z,17.83
2022-11-02T01:00:41.966Z,18.75
2022-11-02T01:03:08.728Z,20.80
2022-11-02T01:05:35.287Z,21.63
2022-11-02T01:08:02.176Z,19.15
2022-11-02T01:10:28.983Z,23.65
2022-11-02T01:12:55.733Z,19.45
2022-11-02T01:15:22.417Z,16.83
2022-11-02T01:17:48.984Z,16.20
2022-11-02T01:20:15.531Z,19.98
2022-11-02T01:22:42.166Z,17.50
2022-11-02T01:25:09.234Z,15.85
2022-11-02T01:27:35.803Z,16.48
2022-11-02T01:30:04.233Z,15.57
2022-11-02T01:32:30.908Z,16.35
2022-11-02T01:34:57.601Z,18.25
2022-11-02T01:37:24.344Z,17.00
2022-11-02T01:39:50.927Z,17.65
2022-11-02T01:42:21.794Z,21.73
2022-11-02T01:44:48.447Z,17.88
2022-11-02T01:47:25.522Z,17.08
2022-11-02T01:49:56.257Z,20.25
2022-11-02T01:52:27.329Z,20.10
2022-11-02T01:55:07.103Z,22.35
2022-11-02T01:57:33.980Z,18.05
2022-11-02T02:00:05.811Z,20.55
2022-11-02T02:02:32.709Z,18.80
2022-11-02T02:05:09.755Z,17.23
2022-11-02T02:07:38.226Z,18.77
2022-11-02T02:10:05.703Z,18.65
2022-11-02T02:12:32.387Z,17.75
2022-11-02T02:14:59.428Z,18.23
2022-11-02T02:17:32.337Z,18.25
2022-11-02T02:20:02.107Z,19.02
2022-11-02T02:22:50.592Z,23.90
2022-11-02T02:25:51.135Z,17.65
2022-11-02T02:28:33.046Z,22.02
2022-11-02T02:31:06.212Z,17.75
2022-11-02T02:33:39.214Z,22.42
2022-11-02T02:36:10.606Z,25.10
2022-11-02T02:39:14.509Z,23.15
2022-11-02T02:41:47.490Z,23.00
2022-11-02T02:44:19.773Z,27.05
2022-11-02T02:46:57.033Z,21.55
2022-11-02T02:49:28.358Z,23.13
2022-11-02T02:51:56.013Z,23.13
2022-11-02T02:54:25.400Z,21.27
2022-11-02T02:56:56.321Z,21.50
2022-11-02T02:59:34.363Z,24.65
2022-11-02T03:02:01.134Z,24.33
2022-11-02T03:04:27.793Z,20.92
2022-11-02T03:06:56.264Z,25.20
2022-11-02T03:09:40.088Z,25.17
2022-11-02T03:12:25.845Z,27.58
2022-11-02T03:14:55.374Z,26.08
2022-11-02T03:17:36.690Z,26.50
2022-11-02T03:20:08.773Z,24.80
2022-11-02T03:23:09.358Z,30.23
2022-11-02T03:25:56.331Z,28.17
2022-11-02T03:28:36.037Z,33.38
2022-11-02T03:31:44.566Z,29.70
2022-11-02T03:34:24.843Z,26.23
2022-11-02T03:36:54.938Z,21.92
2022-11-02T03:39:35.597Z,20.70
2022-11-02T03:42:02.413Z,20.75
2022-11-02T03:44:29.051Z,17.63
2022-11-02T03:46:58.765Z,17.42
2022-11-02T03:49:25.548Z,17.40
2022-11-02T03:51:52.287Z,18.63
2022-11-02T03:54:43.307Z,21.05
2022-11-02T03:57:12.045Z,20.02
2022-11-02T03:59:38.626Z,20.17
2022-11-02T04:02:05.351Z,17.92
2022-11-02T04:04:32.028Z,20.30
2022-11-02T04:06:58.676Z,21.98
2022-11-02T04:09:25.356Z,20.35
2022-11-02T04:12:10.704Z,20.58
2022-11-02T04:17:26.712Z,17.30
2022-11-02T04:19:53.513Z,18.02
2022-11-02T04:22:38.836Z,20.42
2022-11-02T04:25:18.837Z,19.60
2022-11-02T04:27:47.563Z,18.67
2022-11-02T04:30:15.362Z,17.40
2022-11-02T04:33:04.748Z,22.10
2022-11-02T04:35:31.500Z,18.40
2022-11-02T04:38:17.533Z,19.70
2022-11-02T04:40:44.347Z,22.25
2022-11-02T04:43:11.031Z,19.17
2022-11-02T04:45:37.795Z,17.42
2022-11-02T04:48:08.307Z,18.05
2022-11-02T04:50:35.411Z,15.77
2022-11-02T04:53:02.959Z,16.88
2022-11-02T04:55:29.715Z,21.67
2022-11-02T04:57:56.364Z,21.05
2022-11-02T05:00:23.617Z,23.88
2022-11-02T05:02:50.451Z,20.60
2022-11-02T05:05:17.983Z,24.15
2022-11-02T05:07:44.964Z,19.35
2022-11-02T05:10:11.851Z,23.85
2022-11-02T05:12:38.499Z,28.63
2022-11-02T05:15:05.733Z,18.80
2022-11-02T05:17:32.308Z,24.83
2022-11-02T05:19:59.036Z,22.30
2022-11-02T05:22:25.632Z,21.38
2022-11-02T05:24:52.268Z,20.35
2022-11-02T05:27:18.932Z,22.85
2022-11-02T05:29:45.514Z,21.85
2022-11-02T05:32:12.290Z,18.88
2022-11-02T05:34:38.869Z,18.77
2022-11-02T05:37:05.501Z,19.98
2022-11-02T05:39:32.272Z,17.02
2022-11-02T05:41:58.868Z,18.83
2022-11-02T05:44:25.502Z,20.92
2022-11-02T05:46:52.067Z,20.60
2022-11-02T05:49:18.671Z,16.40
2022-11-02T05:51:45.396Z,16.67
2022-11-02T05:54:12.070Z,16.20
2022-11-02T05:56:38.824Z,19.13
2022-11-02T05:59:05.449Z,17.92
2022-11-02T06:01:32.274Z,16.83
2022-11-02T06:03:59.017Z,28.90
2022-11-02T06:06:25.661Z,27.63
2022-11-02T06:08:52.278Z,22.58
2022-11-02T06:11:19.020Z,23.88
2022-11-02T06:13:49.414Z,24.15
2022-11-02T06:16:20.110Z,19.55
2022-11-02T06:18:49.435Z,21.85
2022-11-02T06:21:15.999Z,20.70
2022-11-02T06:23:43.275Z,24.35
2022-11-02T06:26:10.157Z,23.67
2022-11-02T06:28:36.796Z,26.08
2022-11-02T06:31:03.375Z,26.13
2022-11-02T06:33:30.065Z,19.75
2022-11-02T06:35:57.357Z,22.20
2022-11-02T06:38:23.961Z,20.77
2022-11-02T06:41:00.503Z,18.08
2022-11-02T06:43:27.070Z,20.27
2022-11-02T06:45:57.335Z,21.90
2022-11-02T06:48:26.616Z,20.60
2022-11-02T06:50:57.680Z,24.30
2022-11-02T06:53:24.719Z,23.95
2022-11-02T06:55:58.124Z,21.02
2022-11-02T06:58:25.266Z,22.10
2022-11-02T07:00:57.568Z,33.65
2022-11-02T07:03:24.198Z,22.70
2022-11-02T07:05:52.223Z,26.42
2022-11-02T07:08:19.270Z,23.20
2022-11-02T07:10:45.975Z,22.27
2022-11-02T07:13:12.775Z,29.23
2022-11-02T07:15:39.880Z,27.02
2022-11-02T07:18:06.879Z,24.83
2022-11-02T07:20:33.637Z,22.90
2022-11-02T07:23:00.829Z,25.02
2022-11-02T07:25:28.662Z,26.33
2022-11-02T07:27:55.810Z,23.15
2022-11-02T07:30:22.649Z,21.58
2022-11-02T07:32:49.616Z,22.05
2022-11-02T07:35:17.545Z,22.80
2022-11-02T07:37:44.312Z,17.73
2022-11-02T07:40:12.157Z,20.88
2022-11-02T07:42:44.700Z,20.40
2022-11-02T07:45:11.911Z,20.40
2022-11-02T07:47:43.661Z,21.88
2022-11-02T07:50:10.217Z,19.52
2022-11-02T07:52:44.102Z,19.27
2022-11-02T07:55:10.908Z,19.45
2022-11-02T07:57:37.602Z,17.27
2022-11-02T08:00:04.993Z,19.02
2022-11-02T08:02:31.815Z,16.70
2022-11-02T08:04:58.462Z,17.90
2022-11-02T08:07:25.114Z,17.33
2022-11-02T08:09:51.754Z,17.60
2022-11-02T08:12:18.496Z,20.52
2022-11-02T08:14:45.208Z,20.33
2022-11-02T08:17:11.829Z,17.08
2022-11-02T08:19:38.456Z,17.50
2022-11-02T08:22:05.141Z,18.13
2022-11-02T08:24:31.695Z,16.63
2022-11-02T08:26:58.342Z,17.88
2022-11-02T08:29:24.928Z,17.42
2022-11-02T08:31:51.703Z,16.40
2022-11-02T08:34:18.294Z,24.42
2022-11-02T08:36:44.940Z,33.92
2022-11-02T08:39:17.489Z,28.60
2022-11-02T08:41:45.426Z,74.97
2022-11-02T08:44:12.197Z,38.58
2022-11-02T08:46:38.776Z,43.88
2022-11-02T08:49:05.410Z,27.08
2022-11-02T08:51:32.041Z,20.38
2022-11-02T08:53:58.606Z,20.15
2022-11-02T08:56:25.278Z,20.40
2022-11-02T08:58:51.859Z,18.05
2022-11-02T09:01:18.546Z,19.55
2022-11-02T09:03:45.239Z,18.60
2022-11-02T09:06:11.868Z,18.95
2022-11-02T09:08:38.469Z,18.00
2022-11-02T09:11:05.290Z,17.48
2022-11-02T09:13:31.942Z,17.67
2022-11-02T09:15:59.314Z,16.80
2022-11-02T09:18:26.043Z,15.43
2022-11-02T09:20:52.721Z,62.22
2022-11-02T09:23:20.475Z,25.48
2022-11-02T09:25:47.358Z,15.77
2022-11-02T09:28:15.652Z,15.27
2022-11-02T09:30:42.387Z,19.63
2022-11-02T09:33:09.215Z,22.80
2022-11-02T09:35:41.188Z,18.85
2022-11-02T09:38:07.822Z,48.95
2022-11-02T09:41:02.442Z,29.70
2022-11-02T09:44:07.730Z,15.98
2022-11-02T09:46:40.292Z,13.30
2022-11-02T09:49:17.590Z,14.85
2022-11-02T09:51:55.284Z,13.35
2022-11-02T09:54:29.391Z,14.73
2022-11-02T09:56:58.374Z,14.50
2022-11-02T09:59:25.971Z,14.90
2022-11-02T10:02:16.790Z,14.30
2022-11-02T10:05:05.023Z,19.38
2022-11-02T10:07:49.857Z,45.28
2022-11-02T10:10:22.942Z,16.95
2022-11-02T10:13:12.139Z,14.18
2022-11-02T10:15:45.257Z,14.50
2022-11-02T10:18:15.065Z,14.90
2022-11-02T10:20:44.354Z,13.25
2022-11-02T10:23:23.221Z,13.77
2022-11-02T10:25:49.945Z,23.10
2022-11-02T10:28:21.884Z,19.00
2022-11-02T10:30:48.609Z,15.70
2022-11-02T10:33:18.768Z,13.70
2022-11-02T10:36:21.910Z,14.10
2022-11-02T10:39:16.375Z,14.00
2022-11-02T10:42:01.564Z,11.57
2022-11-02T10:47:18.384Z,12.13
2022-11-02T10:50:17.484Z,11.70
2022-11-02T10:52:45.232Z,12.07
2022-11-02T10:55:19.499Z,12.00
2022-11-02T10:57:46.240Z,11.93
2022-11-02T11:00:26.711Z,11.77
2022-11-02T11:03:04.572Z,12.43
2022-11-02T11:05:32.456Z,11.63
2022-11-02T11:08:00.644Z,9.57
2022-11-02T11:10:27.763Z,9.88
2022-11-02T11:12:55.460Z,8.43
2022-11-02T11:20:59.741Z,7.28
2022-11-02T11:23:26.604Z,6.32
2022-11-02T11:26:08.473Z,5.72
2022-11-02T11:28:41.086Z,5.97
2022-11-02T11:31:12.241Z,5.07
2022-11-02T11:33:55.628Z,6.72
2022-11-02T11:36:28.279Z,6.22
2022-11-02T11:38:57.552Z,6.55
2022-11-02T11:41:27.095Z,6.95
2022-11-02T11:43:53.714Z,7.00
2022-11-02T11:46:21.679Z,7.38
2022-11-02T11:48:56.144Z,7.70
2022-11-02T11:51:30.052Z,7.38
2022-11-02T11:54:24.902Z,7.80
2022-11-02T11:56:52.671Z,8.20
2022-11-02T11:59:41.148Z,7.50
2022-11-02T12:02:24.210Z,7.53
2022-11-02T12:04:51.510Z,8.35
2022-11-02T12:07:57.021Z,9.13
2022-11-02T12:10:52.826Z,8.50
2022-11-02T12:13:49.917Z,8.93
2022-11-02T12:16:16.404Z,8.50
2022-11-02T12:19:12.842Z,9.82
2022-11-02T12:22:06.738Z,9.45
2022-11-02T12:25:02.357Z,9.27
2022-11-02T12:27:52.192Z,8.55
2022-11-02T12:30:20.483Z,7.75
2022-11-02T12:33:06.771Z,8.00
2022-11-02T12:35:44.531Z,9.05
2022-11-02T12:38:23.555Z,9.63
2022-11-02T12:41:32.743Z,9.52
2022-11-02T12:44:31.200Z,7.97
2022-11-02T12:47:03.259Z,7.95
2022-11-02T12:49:38.930Z,7.70
2022-11-02T12:52:27.113Z,6.22
2022-11-02T12:54:56.557Z,7.25
2022-11-02T12:57:24.820Z,6.95
2022-11-02T12:59:56.227Z,6.55
2022-11-02T13:02:37.645Z,6.05
2022-11-02T13:05:08.540Z,6.85
2022-11-02T13:07:42.571Z,6.38
2022-11-02T13:10:22.968Z,6.07
2022-11-02T13:12:51.578Z,7.15
2022-11-02T13:15:19.953Z,6.82
2022-11-02T13:17:54.832Z,7.65
2022-11-02T13:20:28.867Z,9.88
2022-11-02T13:22:57.682Z,9.40
2022-11-02T13:25:35.179Z,8.00
2022-11-02T13:28:06.021Z,8.55
2022-11-02T13:30:32.849Z,9.13
2022-11-02T13:33:05.329Z,9.23
2022-11-02T13:35:36.272Z,9.25
2022-11-02T13:38:09.354Z,8.70
2022-11-02T13:40:45.062Z,9.40
2022-11-02T13:43:36.126Z,9.38
2022-11-02T13:46:02.643Z,9.30
2022-11-02T13:48:38.346Z,9.70
2022-11-02T13:51:08.194Z,9.40
2022-11-02T13:53:37.485Z,8.80
2022-11-02T13:56:08.801Z,9.63
2022-11-02T13:58:46.093Z,8.93
2022-11-02T14:01:12.758Z,9.07
2022-11-02T14:04:02.180Z,8.10
2022-11-02T14:06:29.187Z,7.55
2022-11-02T14:08:57.942Z,8.35
2022-11-02T14:11:27.156Z,7.90
2022-11-02T14:13:53.645Z,7.70
2022-11-02T14:16:58.858Z,7.97
2022-11-02T14:19:32.225Z,8.53
2022-11-02T14:21:58.915Z,7.95
2022-11-02T14:24:34.598Z,8.07
2022-11-02T14:27:02.365Z,8.77
2022-11-02T14:29:47.230Z,8.48
2022-11-02T14:32:37.786Z,8.32
2022-11-02T14:35:25.497Z,8.20
2022-11-02T14:38:04.674Z,8.40
2022-11-02T14:40:53.579Z,7.60
2022-11-02T14:43:40.771Z,6.97
2022-11-02T14:46:41.987Z,7.63
2022-11-02T14:49:22.690Z,8.13
2022-11-02T14:52:13.541Z,7.60
2022-11-02T14:54:47.165Z,6.68
2022-11-02T14:57:32.661Z,6.57
2022-11-02T15:00:00.354Z,6.32
2022-11-02T15:02:40.243Z,6.80
2022-11-02T15:05:31.796Z,7.15
2022-11-02T15:07:59.809Z,6.75
2022-11-02T15:10:32.747Z,7.40
2022-11-02T15:13:21.750Z,7.45
2022-11-02T15:15:51.252Z,7.57
2022-11-02T15:18:30.438Z,7.28
2022-11-02T15:21:12.824Z,7.25
2022-11-02T15:23:59.336Z,6.82
2022-11-02T15:26:29.696Z,7.72
2022-11-02T15:28:59.150Z,7.82
2022-11-02T15:31:26.557Z,8.90
2022-11-02T15:34:02.526Z,8.85
2022-11-02T15:36:33.091Z,9.45
2022-11-02T15:39:02.140Z,7.43
2022-11-02T15:41:44.631Z,8.15
2022-11-02T15:44:33.006Z,10.25
2022-11-02T15:47:11.139Z,8.52
2022-11-02T15:50:17.459Z,8.82
2022-11-02T15:53:21.632Z,7.85
2022-11-02T15:56:08.949Z,9.65
2022-11-02T15:58:57.491Z,9.25
2022-11-02T16:01:27.762Z,8.40
2022-11-02T16:03:58.574Z,8.43
2022-11-02T16:06:43.688Z,9.35
2022-11-02T16:09:30.852Z,8.68
2022-11-02T16:12:16.851Z,8.35
2022-11-02T16:14:44.163Z,9.50
2022-11-02T16:17:23.867Z,8.20
2022-11-02T16:19:50.886Z,8.43
2022-11-02T16:22:22.866Z,8.27
2022-11-02T16:24:49.488Z,10.02
2022-11-02T16:27:16.147Z,9.27
2022-11-02T16:29:42.995Z,8.13
2022-11-02T16:32:10.944Z,8.20
2022-11-02T16:34:37.759Z,8.82
2022-11-02T16:37:09.993Z,10.60
2022-11-02T16:39:38.654Z,10.57
2022-11-02T16:42:12.612Z,10.93
2022-11-02T16:44:39.239Z,10.20
2022-11-02T16:47:11.983Z,12.57
2022-11-02T16:49:53.498Z,15.25
2022-11-02T16:52:28.248Z,9.43
2022-11-02T16:54:54.848Z,8.85
2022-11-02T16:57:31.135Z,11.95
2022-11-02T17:00:01.802Z,14.27
2022-11-02T17:02:37.010Z,11.98
2022-11-02T17:05:06.564Z,9.75
2022-11-02T17:07:36.052Z,10.30
2022-11-02T17:10:03.474Z,11.88
2022-11-02T17:12:42.951Z,11.75
2022-11-02T17:15:23.160Z,11.95
2022-11-02T17:17:49.828Z,9.35
2022-11-02T17:20:21.592Z,10.80
2022-11-02T17:22:52.588Z,11.30
2022-11-02T17:25:29.792Z,10.70
2022-11-02T17:27:57.785Z,9.77
2022-11-02T17:30:30.253Z,11.60
2022-11-02T17:32:57.662Z,10.32
2022-11-02T17:35:27.219Z,9.18
2022-11-02T17:37:54.430Z,9.00
2022-11-02T17:40:22.123Z,10.15
2022-11-02T17:43:01.063Z,12.15
2022-11-02T17:45:33.247Z,11.60
2022-11-02T17:48:01.464Z,9.25
2022-11-02T17:50:29.305Z,9.88
2022-11-02T17:52:57.024Z,9.88
2022-11-02T17:55:26.568Z,10.77
2022-11-02T17:57:53.727Z,11.45
2022-11-02T18:00:20.621Z,15.05
2022-11-02T18:02:52.879Z,11.02
2022-11-02T18:05:27.465Z,14.25
2022-11-02T18:07:54.949Z,15.52
2022-11-02T18:10:23.111Z,13.52
2022-11-02T18:12:51.996Z,17.50
2022-11-02T18:15:20.887Z,18.02
2022-11-02T18:17:48.115Z,13.40
2022-11-02T18:20:15.075Z,10.35
2022-11-02T18:22:41.690Z,9.77
2022-11-02T18:25:10.494Z,11.27
2022-11-02T18:27:37.963Z,15.68
2022-11-02T18:30:05.985Z,16.70
2022-11-02T18:32:32.796Z,13.40
2022-11-02T18:34:59.664Z,12.35
2022-11-02T18:37:26.275Z,12.30
2022-11-02T18:39:52.907Z,12.25
2022-11-02T18:42:35.286Z,11.57
2022-11-02T18:45:02.039Z,11.45
2022-11-02T18:47:28.602Z,13.57
2022-11-02T18:49:55.468Z,15.60
2022-11-02T18:52:22.499Z,14.52
2022-11-02T18:54:49.654Z,11.80
2022-11-02T18:57:16.369Z,11.73
2022-11-02T18:59:43.305Z,10.82
2022-11-02T19:02:10.560Z,9.30
2022-11-02T19:04:37.323Z,10.52
2022-11-02T19:07:22.417Z,13.38
2022-11-02T19:09:49.126Z,10.98
2022-11-02T19:12:18.093Z,9.57
2022-11-02T19:14:46.030Z,8.93
2022-11-02T19:17:13.449Z,9.38
2022-11-02T19:19:41.209Z,8.45
2022-11-02T19:22:08.032Z,9.15
2022-11-02T19:24:34.622Z,10.75
2022-11-02T19:27:01.207Z,9.40
2022-11-02T19:29:27.970Z,9.02
2022-11-02T19:31:54.675Z,9.57
2022-11-02T19:34:21.368Z,9.68
2022-11-02T19:36:47.959Z,10.45
2022-11-02T19:39:14.644Z,14.18
2022-11-02T19:41:41.256Z,10.25
2022-11-02T19:44:07.892Z,12.80
2022-11-02T19:46:34.622Z,10.75
2022-11-02T19:49:01.345Z,11.82
2022-11-02T19:51:31.282Z,10.18
2022-11-02T19:53:59.402Z,11.95
2022-11-02T19:56:27.632Z,11.73
2022-11-02T19:58:54.528Z,13.40
2022-11-02T20:01:23.225Z,12.25
2022-11-02T20:03:50.269Z,15.40
2022-11-02T20:06:21.903Z,21.52
2022-11-02T20:08:55.986Z,21.15
2022-11-02T20:11:23.521Z,9.63
2022-11-02T20:13:50.147Z,13.85
2022-11-02T20:16:18.514Z,10.18
2022-11-02T20:18:46.285Z,10.15
2022-11-02T20:21:16.684Z,10.27
2022-11-02T20:23:43.736Z,11.23
2022-11-02T20:26:12.726Z,12.52
2022-11-02T20:28:41.146Z,18.55
2022-11-02T20:31:28.667Z,12.73
2022-11-02T20:33:55.510Z,17.95
2022-11-02T20:36:22.179Z,13.18
2022-11-02T20:38:49.613Z,12.85
2022-11-02T20:41:17.663Z,10.43
2022-11-02T20:43:45.293Z,8.50
2022-11-02T20:49:13.747Z,11.23
2022-11-02T20:51:48.151Z,13.25
2022-11-02T20:54:14.803Z,11.93
2022-11-02T20:56:41.453Z,8.65
2022-11-02T20:59:08.120Z,9.52
2022-11-02T21:01:35.274Z,8.65
2022-11-02T21:04:02.021Z,9.13
2022-11-02T21:06:28.673Z,8.15
2022-11-02T21:08:55.288Z,9.07
2022-11-02T21:11:40.688Z,13.63
2022-11-02T21:16:34.024Z,14.80
2022-11-02T21:19:00.700Z,13.13
2022-11-02T21:21:27.366Z,12.75
2022-11-02T21:23:55.468Z,18.38
2022-11-02T21:26:22.160Z,14.90
2022-11-02T21:28:48.779Z,11.57
2022-11-02T21:31:17.214Z,12.32
2022-11-02T21:33:44.542Z,11.02
2022-11-02T21:36:11.443Z,14.25
2022-11-02T21:38:38.450Z,10.27
2022-11-02T21:41:06.142Z,9.32
2022-11-02T21:43:34.649Z,21.02
2022-11-02T21:46:01.732Z,20.73
2022-11-02T21:48:33.263Z,15.43
2022-11-02T21:51:09.751Z,12.10
2022-11-02T21:53:41.017Z,10.38
2022-11-02T21:56:09.231Z,9.07
2022-11-02T21:58:35.919Z,9.55
2022-11-02T22:01:25.817Z,7.70
2022-11-02T22:03:52.769Z,8.67
2022-11-02T22:06:20.740Z,10.90
2022-11-02T22:08:47.643Z,12.30
2022-11-02T22:11:21.739Z,11.63
2022-11-02T22:13:50.351Z,10.80
2022-11-02T22:16:18.136Z,10.32
2022-11-02T22:18:45.574Z,10.80
2022-11-02T22:21:12.616Z,11.00
2022-11-02T22:23:39.607Z,9.90
2022-11-02T22:26:07.984Z,7.55
2022-11-02T22:28:36.784Z,11.18
2022-11-02T22:31:17.047Z,6.83
2022-11-02T22:33:44.482Z,7.10
2022-11-02T22:36:13.600Z,6.77
2022-11-02T22:38:51.608Z,7.78
2022-11-02T22:41:19.580Z,9.63
2022-11-02T22:43:46.356Z,10.40
2022-11-02T22:46:14.927Z,11.90
2022-11-02T22:48:41.608Z,9.43
2022-11-02T22:51:08.586Z,9.20
2022-11-02T22:53:35.662Z,12.00
2022-11-02T22:56:12.227Z,10.70
2022-11-02T22:58:43.546Z,11.35
2022-11-02T23:01:18.892Z,11.10
2022-11-02T23:03:46.003Z,9.07
2022-11-02T23:06:12.766Z,11.95
2022-11-02T23:08:41.439Z,14.90
2022-11-02T23:11:24.211Z,11.57
2022-11-02T23:13:56.745Z,7.70
2022-11-02T23:16:42.701Z,8.97
2022-11-02T23:19:31.508Z,9.85
2022-11-02T23:22:21.563Z,9.37
2022-11-02T23:25:07.525Z,7.07
2022-11-02T23:27:55.428Z,14.17
2022-11-02T23:30:41.590Z,11.17
2022-11-02T23:33:08.588Z,9.97
2022-11-02T23:35:54.185Z,9.83
2022-11-02T23:38:54.586Z,8.63
2022-11-02T23:41:21.346Z,13.43
2022-11-02T23:43:48.237Z,12.00
2022-11-02T23:46:15.010Z,11.77
2022-11-02T23:48:42.044Z,11.60
2022-11-02T23:51:28.027Z,11.07
2022-11-02T23:54:13.214Z,10.30
2022-11-02T23:56:45.954Z,9.45
2022-11-02T23:59:16.023Z,9.33
